createdAt,value
2022-09-10T00:01:24.431Z,15.10
2022-09-10T00:03:51.741Z,15.20
2022-09-10T00:06:18.992Z,15.10
2022-09-10T00:08:46.637Z,15.20
2022-09-10T00:11:14.946Z,15.20
2022-09-10T00:13:42.284Z,15.20
2022-09-10T00:16:12.708Z,15.20
2022-09-10T00:18:40.490Z,15.20
2022-09-10T00:21:10.255Z,15.30
2022-09-10T00:23:37.606Z,15.30
2022-09-10T00:26:21.590Z,15.30
2022-09-10T00:28:50.140Z,15.30
2022-09-10T00:31:19.331Z,15.30
2022-09-10T00:33:46.095Z,15.30
2022-09-10T00:36:18.661Z,15.40
2022-09-10T00:38:45.869Z,15.30
2022-09-10T00:41:12.507Z,15.40
2022-09-10T00:43:49.424Z,15.40
2022-09-10T00:46:27.784Z,15.40
2022-09-10T00:48:56.754Z,15.40
2022-09-10T00:51:26.221Z,15.40
2022-09-10T00:53:54.087Z,15.50
2022-09-10T00:56:21.296Z,15.40
2022-09-10T00:58:49.113Z,15.40
2022-09-10T01:01:16.461Z,15.50
2022-09-10T01:03:44.873Z,15.50
2022-09-10T01:06:12.367Z,15.40
2022-09-10T01:08:39.016Z,15.50
2022-09-10T01:11:16.434Z,15.50
2022-09-10T01:14:21.187Z,15.50
2022-09-10T01:17:12.205Z,15.50
2022-09-10T01:20:20.768Z,15.50
2022-09-10T01:22:59.574Z,15.40
2022-09-10T01:26:00.749Z,15.40
2022-09-10T01:29:02.927Z,15.40
2022-09-10T01:31:38.411Z,15.40
2022-09-10T01:34:21.778Z,15.40
2022-09-10T01:36:51.838Z,15.50
2022-09-10T01:39:20.834Z,15.50
2022-09-10T01:41:48.283Z,15.50
2022-09-10T01:44:49.898Z,15.50
2022-09-10T01:47:51.283Z,15.50
2022-09-10T01:50:45.846Z,15.50
2022-09-10T01:53:39.624Z,15.50
2022-09-10T01:56:40.929Z,15.50
2022-09-10T01:59:26.885Z,15.40
2022-09-10T02:02:06.556Z,15.40
2022-09-10T02:04:35.274Z,15.40
2022-09-10T02:07:04.798Z,15.40
2022-09-10T02:09:32.297Z,15.40
2022-09-10T02:11:58.929Z,15.40
2022-09-10T02:14:26.330Z,15.40
2022-09-10T02:16:55.389Z,15.40
2022-09-10T02:19:21.974Z,15.40
2022-09-10T02:21:48.864Z,15.40
2022-09-10T02:24:15.510Z,15.40
2022-09-10T02:26:44.231Z,15.40
2022-09-10T02:29:13.794Z,15.40
2022-09-10T02:31:41.989Z,15.40
2022-09-10T02:34:08.630Z,15.40
2022-09-10T02:36:35.743Z,15.40
2022-09-10T02:39:04.546Z,15.40
2022-09-10T02:41:33.914Z,15.40
2022-09-10T02:44:01.886Z,15.40
2022-09-10T02:46:29.164Z,15.40
2022-09-10T02:48:55.936Z,15.50
2022-09-10T02:51:23.179Z,15.40
2022-09-10T02:53:50.102Z,15.50
2022-09-10T02:56:17.610Z,15.40
2022-09-10T02:58:45.154Z,15.40
2022-09-10T03:01:14.735Z,15.40
2022-09-10T03:03:42.350Z,15.40
2022-09-10T03:06:10.044Z,15.40
2022-09-10T03:08:37.110Z,15.40
2022-09-10T03:11:04.370Z,15.40
2022-09-10T03:13:31.011Z,15.50
2022-09-10T03:16:02.949Z,15.50
2022-09-10T03:18:31.854Z,15.50
2022-09-10T03:21:14.757Z,15.40
2022-09-10T03:23:44.798Z,15.50
2022-09-10T03:26:13.181Z,15.50
2022-09-10T03:28:40.778Z,15.40
2022-09-10T03:31:08.069Z,15.40
2022-09-10T03:33:35.494Z,15.40
2022-09-10T03:36:02.668Z,15.40
2022-09-10T03:38:29.393Z,15.50
2022-09-10T03:40:56.546Z,15.40
2022-09-10T03:43:23.118Z,15.50
2022-09-10T03:45:50.490Z,15.50
2022-09-10T03:48:18.471Z,15.50
2022-09-10T03:50:46.053Z,15.50
2022-09-10T03:53:16.043Z,15.40
2022-09-10T03:55:47.177Z,15.50
2022-09-10T03:58:14.960Z,15.50
2022-09-10T04:00:42.867Z,15.40
2022-09-10T04:03:10.877Z,15.40
2022-09-10T04:05:43.589Z,15.40
2022-09-10T04:08:11.635Z,15.40
2022-09-10T04:10:39.740Z,15.40
2022-09-10T04:13:07.014Z,15.40
2022-09-10T04:15:33.990Z,15.40
2022-09-10T04:18:00.738Z,15.40
2022-09-10T04:20:27.552Z,15.40
2022-09-10T04:22:55.027Z,15.30
2022-09-10T04:25:21.604Z,15.30
2022-09-10T04:27:48.947Z,15.20
2022-09-10T04:30:16.885Z,15.20
2022-09-10T04:32:45.030Z,15.20
2022-09-10T04:35:15.153Z,15.20
2022-09-10T04:37:42.906Z,15.20
2022-09-10T04:40:10.576Z,15.20
2022-09-10T04:42:37.410Z,15.10
2022-09-10T04:45:05.358Z,15.10
2022-09-10T04:47:31.917Z,15.10
2022-09-10T04:49:58.465Z,15.10
2022-09-10T04:52:25.090Z,15.10
2022-09-10T04:54:51.657Z,15.10
2022-09-10T04:57:18.313Z,15.10
2022-09-10T04:59:44.917Z,15.20
2022-09-10T05:02:11.649Z,15.20
2022-09-10T05:04:39.294Z,15.20
2022-09-10T05:07:05.938Z,15.10
2022-09-10T05:09:33.576Z,15.20
2022-09-10T05:12:01.034Z,15.10
2022-09-10T05:14:28.074Z,15.10
2022-09-10T05:16:55.152Z,15.10
2022-09-10T05:19:21.974Z,15.10
2022-09-10T05:21:48.989Z,15.10
2022-09-10T05:24:16.401Z,15.20
2022-09-10T05:26:44.106Z,15.20
2022-09-10T05:29:11.391Z,15.30
2022-09-10T05:31:38.272Z,15.30
2022-09-10T05:34:04.971Z,15.30
2022-09-10T05:36:34.266Z,15.40
2022-09-10T05:39:03.106Z,15.40
2022-09-10T05:41:31.035Z,15.40
2022-09-10T05:43:58.645Z,15.50
2022-09-10T05:46:25.614Z,15.50
2022-09-10T05:48:55.353Z,15.60
2022-09-10T05:51:22.208Z,15.60
2022-09-10T05:53:49.826Z,15.70
2022-09-10T05:56:16.607Z,15.70
2022-09-10T05:58:45.057Z,15.80
2022-09-10T06:01:11.728Z,15.80
2022-09-10T06:03:38.385Z,15.80
2022-09-10T06:06:06.082Z,15.90
2022-09-10T06:08:34.414Z,15.80
2022-09-10T06:11:05.038Z,15.80
2022-09-10T06:13:33.675Z,15.80
2022-09-10T06:16:00.779Z,15.70
2022-09-10T06:18:28.132Z,15.70
2022-09-10T06:21:02.817Z,15.70
2022-09-10T06:23:30.938Z,15.60
2022-09-10T06:26:05.432Z,15.60
2022-09-10T06:28:34.062Z,15.60
2022-09-10T06:31:01.252Z,15.60
2022-09-10T06:33:27.847Z,15.70
2022-09-10T06:35:56.290Z,15.70
2022-09-10T06:38:24.271Z,15.80
2022-09-10T06:41:00.381Z,15.80
2022-09-10T06:43:31.334Z,15.90
2022-09-10T06:45:58.541Z,15.90
2022-09-10T06:48:47.913Z,15.90
2022-09-10T06:51:16.512Z,16.00
2022-09-10T06:53:46.451Z,16.00
2022-09-10T06:56:15.058Z,16.00
2022-09-10T06:58:41.789Z,16.10
2022-09-10T07:01:26.447Z,16.20
2022-09-10T07:03:58.843Z,16.20
2022-09-10T07:06:26.047Z,16.30
2022-09-10T07:08:56.891Z,16.30
2022-09-10T07:11:25.538Z,16.40
2022-09-10T07:13:53.663Z,16.30
2022-09-10T07:16:22.537Z,16.30
2022-09-10T07:18:50.692Z,16.20
2022-09-10T07:21:18.406Z,16.20
2022-09-10T07:23:48.235Z,16.30
2022-09-10T07:26:17.545Z,16.30
2022-09-10T07:28:47.399Z,16.40
2022-09-10T07:31:28.033Z,16.70
2022-09-10T07:33:55.766Z,16.80
2022-09-10T07:36:22.504Z,17.00
2022-09-10T07:38:52.136Z,17.20
2022-09-10T07:41:19.086Z,17.20
2022-09-10T07:43:45.927Z,17.30
2022-09-10T07:46:20.201Z,17.30
2022-09-10T07:48:48.573Z,17.50
2022-09-10T07:51:18.216Z,17.70
2022-09-10T07:53:50.536Z,17.70
2022-09-10T07:56:17.542Z,17.90
2022-09-10T07:58:44.726Z,17.80
2022-09-10T08:01:12.692Z,17.70
2022-09-10T08:03:40.084Z,17.60
2022-09-10T08:06:09.023Z,17.50
2022-09-10T08:08:38.718Z,17.50
2022-09-10T08:11:14.405Z,17.60
2022-09-10T08:13:42.518Z,17.60
2022-09-10T08:16:12.076Z,17.70
2022-09-10T08:18:39.716Z,17.70
2022-09-10T08:21:10.964Z,17.90
2022-09-10T08:23:39.507Z,18.10
2022-09-10T08:26:08.093Z,18.20
2022-09-10T08:28:35.987Z,18.20
2022-09-10T08:31:08.269Z,18.30
2022-09-10T08:33:35.609Z,18.50
2022-09-10T08:36:03.868Z,18.50
2022-09-10T08:38:39.739Z,18.80
2022-09-10T08:41:32.293Z,18.90
2022-09-10T08:44:16.083Z,18.90
2022-09-10T08:46:49.079Z,19.00
2022-09-10T08:49:22.649Z,19.20
2022-09-10T08:51:56.264Z,19.00
2022-09-10T08:54:33.625Z,19.00
2022-09-10T08:57:01.989Z,19.10
2022-09-10T08:59:36.317Z,19.00
2022-09-10T09:02:49.383Z,18.90
2022-09-10T09:05:22.684Z,18.80
2022-09-10T09:07:51.313Z,18.70
2022-09-10T09:10:49.857Z,18.60
2022-09-10T09:13:32.126Z,18.60
2022-09-10T09:16:04.635Z,18.40
2022-09-10T09:18:54.935Z,18.40
2022-09-10T09:22:04.488Z,18.40
2022-09-10T09:24:31.424Z,18.90
2022-09-10T09:27:09.797Z,19.70
2022-09-10T09:29:56.417Z,19.90
2022-09-10T09:32:23.935Z,19.40
2022-09-10T09:34:54.806Z,19.20
2022-09-10T09:37:26.977Z,19.10
2022-09-10T09:40:12.432Z,19.40
2022-09-10T09:42:48.211Z,19.60
2022-09-10T09:45:38.262Z,19.80
2022-09-10T09:48:06.877Z,19.60
2022-09-10T09:50:38.695Z,19.80
2022-09-10T09:53:05.378Z,20.00
2022-09-10T09:55:53.981Z,20.40
2022-09-10T09:58:26.775Z,20.70
2022-09-10T10:00:59.194Z,20.50
2022-09-10T10:03:28.865Z,20.70
2022-09-10T10:06:10.346Z,20.80
2022-09-10T10:08:46.248Z,20.70
2022-09-10T10:11:17.910Z,20.70
2022-09-10T10:13:46.247Z,20.70
2022-09-10T10:16:22.712Z,20.60
2022-09-10T10:18:50.306Z,20.50
2022-09-10T10:21:34.373Z,20.60
2022-09-10T10:24:01.154Z,20.60
2022-09-10T10:26:28.658Z,20.70
2022-09-10T10:29:16.869Z,20.60
2022-09-10T10:31:45.366Z,20.80
2022-09-10T10:34:15.142Z,21.20
2022-09-10T10:36:57.408Z,20.80
2022-09-10T10:39:47.718Z,20.90
2022-09-10T10:42:46.729Z,21.10
2022-09-10T10:45:31.432Z,21.30
2022-09-10T10:48:01.966Z,21.60
2022-09-10T10:50:52.768Z,21.90
2022-09-10T10:53:49.772Z,22.20
2022-09-10T10:56:30.242Z,22.00
2022-09-10T10:59:23.886Z,22.30
2022-09-10T11:01:57.586Z,22.40
2022-09-10T11:04:28.119Z,22.50
2022-09-10T11:07:05.974Z,23.10
2022-09-10T11:09:40.941Z,23.20
2022-09-10T11:12:11.596Z,22.70
2022-09-10T11:14:56.014Z,22.50
2022-09-10T11:17:46.365Z,22.20
2022-09-10T11:20:31.523Z,21.60
2022-09-10T11:23:09.359Z,21.50
2022-09-10T11:26:12.290Z,21.60
2022-09-10T11:28:47.361Z,21.90
2022-09-10T11:31:35.396Z,22.30
2022-09-10T11:34:19.093Z,22.90
2022-09-10T11:36:54.460Z,23.30
2022-09-10T11:39:34.743Z,23.50
2022-09-10T11:42:10.330Z,23.90
2022-09-10T11:45:07.366Z,23.90
2022-09-10T11:47:41.124Z,24.20
2022-09-10T11:50:24.023Z,24.30
2022-09-10T11:52:51.257Z,23.30
2022-09-10T11:55:17.979Z,22.80
2022-09-10T11:57:48.248Z,22.70
2022-09-10T12:00:17.289Z,23.30
2022-09-10T12:03:17.756Z,23.00
2022-09-10T12:06:01.948Z,22.30
2022-09-10T12:08:51.105Z,21.60
2022-09-10T12:11:38.434Z,21.10
2022-09-10T12:14:14.709Z,20.80
2022-09-10T12:16:51.044Z,20.90
2022-09-10T12:19:37.538Z,20.60
2022-09-10T12:22:15.789Z,20.00
2022-09-10T12:24:52.662Z,19.60
2022-09-10T12:27:20.099Z,19.70
2022-09-10T12:29:49.066Z,19.50
2022-09-10T12:32:21.794Z,19.70
2022-09-10T12:35:08.832Z,19.50
2022-09-10T12:37:35.842Z,19.50
2022-09-10T12:40:24.855Z,19.50
2022-09-10T12:42:52.182Z,19.50
2022-09-10T12:46:01.111Z,19.60
2022-09-10T12:48:29.142Z,19.60
2022-09-10T12:51:00.408Z,19.80
2022-09-10T12:53:44.312Z,19.90
2022-09-10T12:56:37.665Z,20.10
2022-09-10T12:59:41.684Z,20.40
2022-09-10T13:02:30.023Z,20.70
2022-09-10T13:05:00.727Z,20.80
2022-09-10T13:07:37.118Z,21.00
2022-09-10T13:10:21.527Z,21.00
2022-09-10T13:12:55.051Z,21.20
2022-09-10T13:15:31.957Z,21.40
2022-09-10T13:17:59.673Z,21.70
2022-09-10T13:20:26.326Z,22.10
2022-09-10T13:23:02.120Z,22.40
2022-09-10T13:25:41.272Z,22.80
2022-09-10T13:28:30.573Z,23.20
2022-09-10T13:31:05.121Z,23.30
2022-09-10T13:33:40.691Z,23.80
2022-09-10T13:36:35.491Z,24.80
2022-09-10T13:39:12.186Z,24.70
2022-09-10T13:42:18.030Z,24.30
2022-09-10T13:45:03.360Z,23.80
2022-09-10T13:48:07.609Z,24.10
2022-09-10T13:50:59.131Z,24.70
2022-09-10T13:53:28.845Z,24.90
2022-09-10T13:55:57.733Z,25.70
2022-09-10T13:58:28.591Z,26.70
2022-09-10T14:00:57.430Z,26.80
2022-09-10T14:03:35.633Z,26.70
2022-09-10T14:06:16.510Z,26.70
2022-09-10T14:08:51.212Z,26.70
2022-09-10T14:11:26.217Z,25.90
2022-09-10T14:14:26.227Z,25.90
2022-09-10T14:17:03.894Z,25.50
2022-09-10T14:20:01.419Z,24.80
2022-09-10T14:22:29.212Z,24.00
2022-09-10T14:25:01.545Z,23.80
2022-09-10T14:27:30.931Z,23.60
2022-09-10T14:30:16.160Z,23.40
2022-09-10T14:32:43.092Z,23.00
2022-09-10T14:35:35.860Z,22.70
2022-09-10T14:38:06.657Z,22.50
2022-09-10T14:40:37.537Z,22.50
2022-09-10T14:43:29.289Z,22.50
2022-09-10T14:45:56.348Z,22.50
2022-09-10T14:48:39.899Z,22.40
2022-09-10T14:51:18.415Z,22.40
2022-09-10T14:53:53.606Z,22.00
2022-09-10T14:56:22.326Z,21.90
2022-09-10T14:59:10.711Z,21.60
2022-09-10T15:01:37.489Z,21.40
2022-09-10T15:04:04.307Z,21.40
2022-09-10T15:06:31.596Z,21.60
2022-09-10T15:08:58.165Z,21.80
2022-09-10T15:11:27.444Z,21.80
2022-09-10T15:13:55.975Z,21.60
2022-09-10T15:16:25.736Z,21.70
2022-09-10T15:18:52.332Z,21.90
2022-09-10T15:21:19.369Z,21.80
2022-09-10T15:23:48.103Z,21.90
2022-09-10T15:26:15.421Z,21.90
2022-09-10T15:28:42.170Z,22.00
2022-09-10T15:31:08.946Z,21.90
2022-09-10T15:33:35.986Z,22.00
2022-09-10T15:36:03.202Z,22.00
2022-09-10T15:38:31.340Z,21.90
2022-09-10T15:41:12.520Z,21.70
2022-09-10T15:43:42.917Z,21.50
2022-09-10T15:46:11.227Z,21.30
2022-09-10T15:48:38.465Z,21.20
2022-09-10T15:51:09.089Z,21.20
2022-09-10T15:53:36.021Z,21.20
2022-09-10T15:56:04.387Z,21.20
2022-09-10T15:58:31.254Z,21.10
2022-09-10T16:01:11.301Z,21.10
2022-09-10T16:03:47.093Z,20.90
2022-09-10T16:06:15.528Z,20.80
2022-09-10T16:08:42.161Z,20.70
2022-09-10T16:11:11.707Z,20.60
2022-09-10T16:13:39.666Z,20.50
2022-09-10T16:16:09.819Z,20.60
2022-09-10T16:18:36.946Z,20.50
2022-09-10T16:21:12.156Z,20.50
2022-09-10T16:23:40.813Z,20.40
2022-09-10T16:26:09.163Z,20.40
2022-09-10T16:28:35.762Z,20.40
2022-09-10T16:31:20.981Z,20.40
2022-09-10T16:33:52.793Z,20.40
2022-09-10T16:36:21.191Z,20.20
2022-09-10T16:38:53.081Z,20.00
2022-09-10T16:41:20.295Z,20.00
2022-09-10T16:43:47.021Z,19.90
2022-09-10T16:46:14.157Z,19.90
2022-09-10T16:48:42.870Z,19.90
2022-09-10T16:51:19.566Z,19.80
2022-09-10T16:53:55.514Z,19.60
2022-09-10T16:56:22.672Z,19.70
2022-09-10T16:58:49.537Z,19.50
2022-09-10T17:01:16.529Z,19.40
2022-09-10T17:03:45.812Z,19.40
2022-09-10T17:06:24.582Z,19.40
2022-09-10T17:08:57.546Z,19.40
2022-09-10T17:11:26.210Z,19.30
2022-09-10T17:13:54.200Z,19.20
2022-09-10T17:16:20.917Z,19.10
2022-09-10T17:18:53.912Z,19.10
2022-09-10T17:21:20.575Z,19.10
2022-09-10T17:23:47.304Z,19.00
2022-09-10T17:26:13.960Z,18.90
2022-09-10T17:28:40.944Z,18.80
2022-09-10T17:31:07.718Z,18.80
2022-09-10T17:33:34.421Z,18.70
2022-09-10T17:36:03.659Z,18.60
2022-09-10T17:38:33.104Z,18.60
2022-09-10T17:41:02.245Z,18.50
2022-09-10T17:43:30.173Z,18.40
2022-09-10T17:45:58.073Z,18.40
2022-09-10T17:48:28.127Z,18.30
2022-09-10T17:50:55.049Z,18.30
2022-09-10T17:53:21.636Z,18.30
2022-09-10T17:55:48.208Z,18.30
2022-09-10T17:58:16.571Z,18.30
2022-09-10T18:00:49.303Z,18.20
2022-09-10T18:03:17.584Z,18.20
2022-09-10T18:05:45.755Z,18.20
2022-09-10T18:08:13.171Z,18.10
2022-09-10T18:10:40.226Z,18.10
2022-09-10T18:13:08.115Z,18.00
2022-09-10T18:15:42.053Z,18.00
2022-09-10T18:18:09.857Z,17.90
2022-09-10T18:20:36.530Z,17.90
2022-09-10T18:23:03.337Z,17.90
2022-09-10T18:25:31.869Z,17.90
2022-09-10T18:28:01.359Z,17.80
2022-09-10T18:30:28.767Z,17.80
2022-09-10T18:32:55.471Z,17.80
2022-09-10T18:35:22.948Z,17.80
2022-09-10T18:37:51.647Z,17.70
2022-09-10T18:40:19.574Z,17.70
2022-09-10T18:42:47.782Z,17.70
2022-09-10T18:45:14.628Z,17.60
2022-09-10T18:47:44.964Z,17.60
2022-09-10T18:50:13.157Z,17.50
2022-09-10T18:52:39.980Z,17.50
2022-09-10T18:55:07.058Z,17.50
2022-09-10T18:57:33.707Z,17.50
2022-09-10T19:00:00.987Z,17.50
2022-09-10T19:02:27.851Z,17.50
2022-09-10T19:05:10.792Z,17.50
2022-09-10T19:07:38.323Z,17.50
2022-09-10T19:10:06.933Z,17.50
2022-09-10T19:12:34.119Z,17.50
2022-09-10T19:15:00.701Z,17.50
2022-09-10T19:17:27.401Z,17.50
2022-09-10T19:19:53.962Z,17.50
2022-09-10T19:22:20.643Z,17.50
2022-09-10T19:24:55.759Z,17.40
2022-09-10T19:27:23.788Z,17.40
2022-09-10T19:29:50.656Z,17.40
2022-09-10T19:32:19.403Z,17.40
2022-09-10T19:34:46.156Z,17.30
2022-09-10T19:37:13.081Z,17.40
2022-09-10T19:39:40.103Z,17.40
2022-09-10T19:42:06.899Z,17.40
2022-09-10T19:44:33.799Z,17.40
2022-09-10T19:47:00.833Z,17.40
2022-09-10T19:49:27.613Z,17.40
2022-09-10T19:51:54.282Z,17.40
2022-09-10T19:54:22.651Z,17.30
2022-09-10T19:56:49.627Z,17.20
2022-09-10T19:59:17.093Z,17.10
2022-09-10T20:01:45.777Z,17.00
2022-09-10T20:04:13.963Z,16.80
2022-09-10T20:06:42.448Z,16.80
2022-09-10T20:09:10.166Z,16.70
2022-09-10T20:11:37.582Z,16.50
2022-09-10T20:14:10.476Z,16.50
2022-09-10T20:16:38.879Z,16.50
2022-09-10T20:19:07.613Z,16.50
2022-09-10T20:21:35.554Z,16.40
2022-09-10T20:24:02.576Z,16.40
2022-09-10T20:26:32.545Z,16.40
2022-09-10T20:29:03.766Z,16.40
2022-09-10T20:31:32.604Z,16.30
2022-09-10T20:34:04.026Z,16.30
2022-09-10T20:36:32.138Z,16.20
2022-09-10T20:38:59.191Z,16.20
2022-09-10T20:41:29.910Z,16.20
2022-09-10T20:43:59.223Z,16.20
2022-09-10T20:46:28.267Z,16.20
2022-09-10T20:49:02.590Z,16.20
2022-09-10T20:51:32.207Z,16.10
2022-09-10T20:53:59.899Z,16.00
2022-09-10T20:56:26.846Z,16.00
2022-09-10T20:58:53.568Z,16.00
2022-09-10T21:01:22.565Z,15.90
2022-09-10T21:03:50.648Z,15.90
2022-09-10T21:06:19.431Z,15.90
2022-09-10T21:08:48.253Z,15.80
2022-09-10T21:11:18.327Z,15.80
2022-09-10T21:13:48.010Z,15.80
2022-09-10T21:16:36.486Z,15.70
2022-09-10T21:19:09.630Z,15.60
2022-09-10T21:21:39.266Z,15.60
2022-09-10T21:24:17.718Z,15.50
2022-09-10T21:26:44.618Z,15.40
2022-09-10T21:29:17.081Z,15.30
2022-09-10T21:31:45.215Z,15.30
2022-09-10T21:34:12.579Z,15.30
2022-09-10T21:36:40.963Z,15.30
2022-09-10T21:39:12.586Z,15.20
2022-09-10T21:41:50.079Z,15.20
2022-09-10T21:44:22.870Z,15.30
2022-09-10T21:46:50.127Z,15.30
2022-09-10T21:49:17.402Z,15.20
2022-09-10T21:51:44.981Z,15.20
2022-09-10T21:54:14.524Z,15.20
2022-09-10T21:56:41.192Z,15.20
2022-09-10T21:59:10.362Z,15.20
2022-09-10T22:01:37.081Z,15.10
2022-09-10T22:04:03.998Z,15.10
2022-09-10T22:06:32.608Z,15.10
2022-09-10T22:09:06.233Z,15.10
2022-09-10T22:11:34.156Z,15.10
2022-09-10T22:14:03.828Z,15.10
2022-09-10T22:16:31.671Z,15.00
2022-09-10T22:19:00.584Z,15.00
2022-09-10T22:21:27.551Z,14.90
2022-09-10T22:23:54.149Z,14.90
2022-09-10T22:26:25.080Z,14.90
2022-09-10T22:28:57.009Z,14.90
2022-09-10T22:31:25.669Z,14.80
2022-09-10T22:33:58.235Z,14.80
2022-09-10T22:36:33.918Z,14.80
2022-09-10T22:39:03.131Z,14.80
2022-09-10T22:41:31.579Z,14.80
2022-09-10T22:43:58.341Z,14.70
2022-09-10T22:46:25.103Z,14.70
2022-09-10T22:48:52.304Z,14.60
2022-09-10T22:51:23.067Z,14.60
2022-09-10T22:53:51.222Z,14.70
2022-09-10T22:56:18.761Z,14.60
2022-09-10T22:58:45.898Z,14.60
2022-09-10T23:01:15.178Z,14.50
2022-09-10T23:03:43.432Z,14.50
2022-09-10T23:06:14.802Z,14.40
2022-09-10T23:08:43.959Z,14.40
2022-09-10T23:11:15.306Z,14.30
2022-09-10T23:13:43.458Z,14.40
2022-09-10T23:16:16.112Z,14.40
2022-09-10T23:18:46.300Z,14.30
2022-09-10T23:21:13.776Z,14.30
2022-09-10T23:23:44.115Z,14.30
2022-09-10T23:26:10.840Z,14.30
2022-09-10T23:28:37.895Z,14.20
2022-09-10T23:31:18.975Z,14.20
2022-09-10T23:33:55.044Z,14.20
2022-09-10T23:36:22.280Z,14.30
2022-09-10T23:38:49.198Z,14.20
2022-09-10T23:41:18.569Z,14.10
2022-09-10T23:43:45.701Z,14.10
2022-09-10T23:46:13.184Z,14.10
2022-09-10T23:48:42.377Z,14.10
2022-09-10T23:51:11.228Z,14.10
2022-09-10T23:53:38.117Z,14.00
2022-09-10T23:56:04.840Z,14.00
2022-09-10T23:58:31.941Z,14.00
